Time;durP1;ratioP1;P1;durP2;ratioP2;P2;SDS_P1;SDS_P2;PMS_P1;PMS_P2;Temp;Humidity;BMP_temperature;BMP_pressure;BME280_temperature;BME280_humidity;BME280_pressure;Samples;Min_cycle;Max_cycle;Signal;HPM_P1;HPM_P2
2023/06/01 00:02:22;;;;;;;18.98;4.60;;;22.20;49.10;;;;;;5031214;28;20511;-55
2023/06/01 00:04:49;;;;;;;16.88;4.97;;;22.20;49.20;;;;;;5034939;28;20044;-57
2023/06/01 00:07:16;;;;;;;18.45;5.15;;;22.30;49.20;;;;;;5034961;28;20048;-56
2023/06/01 00:09:42;;;;;;;22.33;5.53;;;22.30;49.10;;;;;;5035107;28;20536;-57
2023/06/01 00:12:08;;;;;;;17.73;5.25;;;22.30;49.30;;;;;;5034706;28;20109;-56
2023/06/01 00:14:34;;;;;;;17.40;5.03;;;22.20;49.20;;;;;;5035123;28;20555;-51
2023/06/01 00:17:00;;;;;;;15.13;4.65;;;22.20;49.10;;;;;;5034689;28;20025;-54
2023/06/01 00:19:26;;;;;;;14.45;4.47;;;22.20;49.20;;;;;;5034767;28;20033;-54
2023/06/01 00:21:53;;;;;;;22.33;4.97;;;22.20;49.30;;;;;;5034632;28;20477;-53
2023/06/01 00:24:20;;;;;;;17.05;5.43;;;22.20;49.20;;;;;;5034560;28;20548;-55
2023/06/01 00:26:47;;;;;;;15.73;5.03;;;22.20;49.20;;;;;;5034746;28;20025;-54
2023/06/01 00:29:13;;;;;;;19.77;5.50;;;22.20;49.20;;;;;;5034909;28;20032;-57
2023/06/01 00:31:39;;;;;;;18.48;5.40;;;22.30;49.30;;;;;;5033519;28;20511;-56
2023/06/01 00:34:04;;;;;;;17.10;5.03;;;22.30;49.40;;;;;;5032623;28;20040;-51
2023/06/01 00:36:31;;;;;;;18.23;5.10;;;22.30;50.90;;;;;;5034433;28;20030;-53
2023/06/01 00:39:01;;;;;;;20.42;5.10;;;22.30;50.60;;;;;;5034332;28;20434;-54
2023/06/01 00:41:28;;;;;;;17.63;5.25;;;22.30;50.30;;;;;;5030022;28;20025;-55
2023/06/01 00:43:54;;;;;;;18.48;4.78;;;22.30;49.70;;;;;;5014624;28;20081;-57
2023/06/01 00:46:20;;;;;;;20.55;4.40;;;22.30;50.00;;;;;;5028778;28;20044;-57
2023/06/01 00:48:46;;;;;;;16.42;4.75;;;22.30;50.00;;;;;;5033006;28;20416;-54
2023/06/01 00:51:14;;;;;;;17.10;4.72;;;22.30;49.70;;;;;;5034532;28;20041;-54
2023/06/01 00:53:41;;;;;;;16.02;4.30;;;22.30;49.60;;;;;;5033925;28;20026;-58
2023/06/01 00:56:08;;;;;;;14.40;4.32;;;22.30;49.70;;;;;;5033932;28;20515;-55
2023/06/01 00:58:34;;;;;;;19.42;4.22;;;22.30;49.70;;;;;;5034095;28;20071;-54
2023/06/01 01:01:01;;;;;;;19.20;4.20;;;22.30;49.60;;;;;;5033721;28;20455;-56
2023/06/01 01:03:31;;;;;;;11.73;4.20;;;22.30;49.50;;;;;;5034475;28;20197;-54
2023/06/01 01:06:13;;;;;;;15.20;4.43;;;22.30;49.40;;;;;;5034193;28;20032;-57
2023/06/01 01:08:54;;;;;;;14.38;4.43;;;22.30;49.50;;;;;;5034026;28;20033;-56
2023/06/01 01:11:26;;;;;;;13.10;3.58;;;22.30;49.50;;;;;;5032906;28;20041;-57
2023/06/01 01:14:10;;;;;;;16.65;4.25;;;22.30;49.50;;;;;;5023853;28;20026;-55
2023/06/01 01:17:02;;;;;;;12.95;3.83;;;22.30;49.50;;;;;;5048857;28;20036;-56
2023/06/01 01:19:47;;;;;;;12.80;3.78;;;22.30;49.60;;;;;;5032464;28;20408;-51
2023/06/01 01:22:38;;;;;;;13.27;4.07;;;22.30;49.40;;;;;;5032381;28;20489;-57
2023/06/01 01:25:23;;;;;;;15.70;3.40;;;22.30;49.60;;;;;;5028350;28;20022;-56
2023/06/01 01:28:42;;;;;;;14.98;3.60;;;22.30;49.60;;;;;;5032391;28;20021;-56
2023/06/01 01:31:12;;;;;;;12.68;3.60;;;22.20;49.40;;;;;;5024661;28;20060;-57
2023/06/01 01:33:39;;;;;;;8.73;3.25;;;22.20;49.50;;;;;;5032305;28;20033;-57
2023/06/01 01:36:07;;;;;;;8.18;2.92;;;22.20;49.50;;;;;;5048336;28;20029;-57
2023/06/01 01:38:36;;;;;;;10.63;3.20;;;22.20;49.50;;;;;;5028392;28;20108;-57
2023/06/01 01:41:03;;;;;;;8.05;3.08;;;22.20;49.60;;;;;;5032460;28;20022;-57
2023/06/01 01:43:30;;;;;;;8.73;2.97;;;22.20;49.50;;;;;;5033216;28;20554;-57
2023/06/01 01:46:11;;;;;;;10.10;2.95;;;22.20;49.60;;;;;;5032917;28;20049;-54
2023/06/01 01:48:48;;;;;;;8.80;2.90;;;22.20;49.50;;;;;;5033591;28;20021;-57
2023/06/01 01:51:22;;;;;;;10.63;3.15;;;22.20;49.60;;;;;;5033155;28;20105;-57
2023/06/01 01:53:50;;;;;;;8.95;3.05;;;22.20;49.60;;;;;;5031862;28;20496;-57
2023/06/01 01:56:18;;;;;;;9.32;3.10;;;22.20;49.60;;;;;;5031164;28;20041;-58
2023/06/01 01:58:45;;;;;;;9.48;2.83;;;22.20;49.70;;;;;;5033138;28;20109;-55
2023/06/01 02:01:12;;;;;;;8.90;3.05;;;22.20;49.60;;;;;;5031546;28;20155;-58
2023/06/01 02:03:37;;;;;;;8.38;2.95;;;22.20;49.70;;;;;;5032755;28;20022;-55
2023/06/01 02:06:03;;;;;;;8.65;3.13;;;22.20;49.70;;;;;;5031166;28;20455;-59
2023/06/01 02:08:29;;;;;;;6.00;2.88;;;22.20;49.70;;;;;;5031574;28;20041;-58
2023/06/01 02:10:55;;;;;;;8.65;2.72;;;22.20;49.70;;;;;;5042669;28;20025;-58
2023/06/01 02:13:21;;;;;;;11.40;2.85;;;22.10;49.70;;;;;;5051414;28;20102;-55
2023/06/01 02:15:47;;;;;;;9.95;2.58;;;22.20;49.70;;;;;;5041078;28;20091;-58
2023/06/01 02:18:15;;;;;;;6.15;2.50;;;22.10;49.60;;;;;;5032941;28;20512;-58
2023/06/01 02:20:41;;;;;;;8.88;2.75;;;22.20;49.70;;;;;;5029692;28;20034;-58
2023/06/01 02:23:07;;;;;;;8.30;2.92;;;22.10;49.60;;;;;;5030785;28;20029;-57
2023/06/01 02:25:33;;;;;;;6.63;2.70;;;22.10;49.60;;;;;;5031380;28;20392;-54
2023/06/01 02:27:59;;;;;;;7.00;2.72;;;22.10;49.70;;;;;;5031195;28;20021;-56
2023/06/01 02:30:25;;;;;;;6.35;2.88;;;22.10;49.60;;;;;;5014324;28;20037;-57
2023/06/01 02:32:51;;;;;;;6.50;2.50;;;22.20;49.70;;;;;;5030716;28;20084;-58
2023/06/01 02:35:17;;;;;;;7.53;2.90;;;22.10;49.70;;;;;;5026793;28;20022;-54
2023/06/01 02:37:43;;;;;;;11.30;2.80;;;22.20;49.70;;;;;;5020234;28;20037;-57
2023/06/01 02:40:11;;;;;;;10.13;3.08;;;22.20;49.70;;;;;;5032411;28;20022;-57
2023/06/01 02:42:38;;;;;;;8.57;2.50;;;22.20;50.30;;;;;;5030358;28;20040;-57
2023/06/01 02:45:08;;;;;;;6.50;2.40;;;22.20;49.70;;;;;;5030849;28;20092;-55
2023/06/01 02:47:34;;;;;;;7.35;2.60;;;22.20;50.30;;;;;;5031112;28;20025;-57
2023/06/01 02:50:00;;;;;;;8.02;2.88;;;22.10;49.70;;;;;;5027557;28;20037;-53
2023/06/01 02:52:27;;;;;;;5.47;2.35;;;22.20;49.70;;;;;;5042880;28;20037;-58
2023/06/01 02:54:53;;;;;;;6.75;2.25;;;22.20;49.70;;;;;;5013205;28;20440;-55
2023/06/01 02:57:37;;;;;;;9.32;2.58;;;22.20;49.70;;;;;;5030822;28;20164;-52
2023/06/01 03:00:15;;;;;;;9.35;2.85;;;22.20;49.70;;;;;;5030621;28;20108;-58
2023/06/01 03:02:42;;;;;;;7.72;3.00;;;22.20;49.80;;;;;;5030378;28;20404;-58
2023/06/01 03:05:09;;;;;;;7.28;3.10;;;22.20;49.80;;;;;;5028952;28;20045;-57
2023/06/01 03:07:35;;;;;;;7.22;2.80;;;22.10;49.70;;;;;;5030337;28;20025;-52
2023/06/01 03:10:10;;;;;;;6.93;2.90;;;22.10;49.80;;;;;;5027300;28;20028;-57
2023/06/01 03:12:53;;;;;;;7.13;2.55;;;22.10;49.80;;;;;;5024902;28;20489;-57
2023/06/01 03:15:19;;;;;;;6.68;2.55;;;22.10;49.80;;;;;;5030760;28;20025;-56
2023/06/01 03:17:45;;;;;;;9.57;2.97;;;22.10;49.80;;;;;;5030593;28;20366;-55
2023/06/01 03:20:15;;;;;;;8.23;2.63;;;22.20;49.90;;;;;;5030371;28;20052;-57
2023/06/01 03:22:45;;;;;;;7.40;2.60;;;22.10;49.90;;;;;;5020579;28;20493;-55
2023/06/01 03:25:12;;;;;;;9.73;3.00;;;22.10;49.90;;;;;;5027873;28;20104;-57
2023/06/01 03:27:39;;;;;;;6.13;2.70;;;22.10;49.90;;;;;;5013412;28;20608;-54
2023/06/01 03:30:09;;;;;;;6.13;2.58;;;22.10;49.90;;;;;;5020093;28;20041;-54
2023/06/01 03:32:42;;;;;;;8.73;2.75;;;22.10;49.90;;;;;;5015916;28;20105;-57
2023/06/01 03:35:09;;;;;;;8.27;2.80;;;22.10;50.00;;;;;;5017977;28;20058;-58
2023/06/01 03:37:36;;;;;;;8.30;3.13;;;22.10;50.00;;;;;;5025894;28;20029;-58
2023/06/01 03:40:12;;;;;;;10.10;3.00;;;22.10;50.00;;;;;;5029973;28;20400;-57
2023/06/01 03:42:40;;;;;;;7.45;2.55;;;22.10;50.00;;;;;;5029892;28;20033;-58
2023/06/01 03:45:06;;;;;;;8.57;3.08;;;22.10;50.00;;;;;;5030915;28;20588;-58
2023/06/01 03:47:33;;;;;;;9.60;2.97;;;22.10;50.10;;;;;;5011773;28;20018;-58
2023/06/01 03:50:00;;;;;;;8.63;3.08;;;22.10;50.00;;;;;;5020124;28;20033;-58
2023/06/01 03:52:27;;;;;;;10.32;3.08;;;22.10;50.00;;;;;;5030182;28;20397;-54
2023/06/01 03:54:55;;;;;;;5.50;2.72;;;22.10;50.10;;;;;;5030922;28;20080;-57
2023/06/01 03:57:41;;;;;;;6.45;2.85;;;22.00;50.00;;;;;;5030654;28;20112;-56
2023/06/01 04:00:20;;;;;;;8.30;3.45;;;22.00;50.00;;;;;;5023153;28;20113;-56
2023/06/01 04:02:54;;;;;;;8.35;3.00;;;22.10;50.10;;;;;;5011299;28;20022;-49
2023/06/01 04:05:22;;;;;;;8.52;2.95;;;22.10;50.70;;;;;;5022540;28;20057;-53
2023/06/01 04:07:51;;;;;;;8.98;3.20;;;22.10;50.10;;;;;;5034128;28;20025;-55
2023/06/01 04:10:17;;;;;;;9.18;3.33;;;22.00;50.10;;;;;;5029861;28;20017;-53
2023/06/01 04:12:44;;;;;;;11.68;3.63;;;22.10;50.10;;;;;;5031043;28;20108;-51
2023/06/01 04:15:11;;;;;;;7.07;3.05;;;22.10;50.10;;;;;;5026422;28;20030;-56
2023/06/01 04:17:38;;;;;;;7.18;2.95;;;22.00;50.10;;;;;;5015529;28;20045;-55
2023/06/01 04:20:11;;;;;;;10.00;3.67;;;22.10;50.10;;;;;;5029439;28;20033;-54
2023/06/01 04:22:38;;;;;;;17.08;3.88;;;22.00;50.10;;;;;;5030712;28;20029;-55
2023/06/01 04:25:08;;;;;;;7.45;3.53;;;22.10;50.80;;;;;;5030595;28;20456;-57
2023/06/01 04:27:38;;;;;;;10.52;3.88;;;22.10;50.20;;;;;;5029983;28;20061;-55
2023/06/01 04:30:07;;;;;;;7.35;3.22;;;22.10;50.20;;;;;;5029186;28;20025;-58
2023/06/01 04:32:37;;;;;;;8.10;3.42;;;22.10;50.10;;;;;;5029649;28;20034;-55
2023/06/01 04:35:07;;;;;;;9.00;3.20;;;22.10;50.20;;;;;;5029649;28;20033;-55
2023/06/01 04:37:35;;;;;;;9.38;3.45;;;22.10;50.20;;;;;;5046099;28;20037;-55
2023/06/01 04:40:07;;;;;;;9.55;3.60;;;22.10;50.10;;;;;;5024462;28;20070;-55
2023/06/01 04:42:38;;;;;;;8.07;3.35;;;22.10;50.10;;;;;;5029198;28;20408;-56
2023/06/01 04:45:09;;;;;;;11.35;3.35;;;22.10;50.10;;;;;;5026173;28;20038;-56
2023/06/01 04:47:39;;;;;;;9.57;3.40;;;22.10;50.10;;;;;;5019941;28;20053;-54
2023/06/01 04:50:10;;;;;;;11.18;3.70;;;22.10;50.10;;;;;;5032572;28;20029;-53
2023/06/01 04:52:40;;;;;;;7.53;3.33;;;22.10;50.10;;;;;;5032761;28;20059;-58
2023/06/01 04:55:06;;;;;;;;;;;22.10;50.70;;;;;;5059380;23;20056;-48
2023/06/01 04:57:35;;;;;;;13.90;3.83;;;22.10;50.10;;;;;;5030245;28;19921;-52
2023/06/01 05:00:06;;;;;;;7.57;3.65;;;22.10;50.20;;;;;;5033731;28;20112;-49
2023/06/01 05:02:32;;;;;;;11.45;4.25;;;22.10;50.20;;;;;;5040085;28;20032;-51
2023/06/01 05:04:58;;;;;;;10.10;4.05;;;22.10;50.20;;;;;;5033657;28;20025;-49
2023/06/01 05:07:24;;;;;;;11.00;4.22;;;22.10;50.20;;;;;;5012009;28;20030;-47
2023/06/01 05:09:51;;;;;;;13.10;5.30;;;22.10;50.20;;;;;;5012919;28;20036;-50
2023/06/01 05:12:17;;;;;;;10.45;4.55;;;22.10;50.20;;;;;;5012278;28;20104;-47
2023/06/01 05:14:43;;;;;;;9.20;4.22;;;22.10;50.20;;;;;;4996607;28;20023;-48
2023/06/01 05:17:09;;;;;;;12.07;4.95;;;22.10;50.20;;;;;;5000138;28;20444;-45
2023/06/01 05:19:36;;;;;;;9.15;4.95;;;22.10;50.30;;;;;;5009664;28;20042;-49
2023/06/01 05:22:01;;;;;;;13.48;5.80;;;22.10;50.20;;;;;;5008789;28;20073;-49
2023/06/01 05:24:28;;;;;;;7.72;4.50;;;22.00;50.20;;;;;;5010122;28;20030;-48
2023/06/01 05:26:53;;;;;;;12.30;4.50;;;22.00;50.20;;;;;;5012715;28;20049;-47
2023/06/01 05:29:19;;;;;;;14.43;5.30;;;22.00;50.20;;;;;;5012811;28;20029;-50
2023/06/01 05:31:46;;;;;;;10.10;5.30;;;22.00;50.20;;;;;;5013162;28;20040;-47
2023/06/01 05:34:13;;;;;;;15.10;6.28;;;22.00;50.20;;;;;;5032882;28;20053;-47
2023/06/01 05:36:39;;;;;;;12.65;5.47;;;22.00;50.20;;;;;;5028831;28;20030;-48
2023/06/01 05:39:06;;;;;;;12.52;5.10;;;22.00;50.20;;;;;;5012234;28;20026;-50
2023/06/01 05:41:32;;;;;;;11.80;5.32;;;22.00;50.10;;;;;;5011803;28;20030;-48
2023/06/01 05:43:57;;;;;;;11.05;5.10;;;22.00;50.10;;;;;;5013261;28;20029;-47
2023/06/01 05:46:24;;;;;;;12.63;5.38;;;22.00;50.10;;;;;;5013237;28;20153;-47
2023/06/01 05:48:51;;;;;;;13.15;5.18;;;22.00;50.70;;;;;;5005035;28;20470;-47
2023/06/01 05:51:17;;;;;;;13.38;5.18;;;22.00;50.10;;;;;;4994430;28;20022;-47
2023/06/01 05:53:44;;;;;;;10.63;4.57;;;22.00;50.10;;;;;;4992732;28;20133;-47
2023/06/01 05:56:10;;;;;;;14.48;4.78;;;22.00;50.00;;;;;;5019293;28;20030;-47
2023/06/01 05:58:36;;;;;;;12.85;4.60;;;22.00;50.00;;;;;;4997825;28;20049;-48
2023/06/01 06:01:03;;;;;;;10.93;4.65;;;22.00;50.00;;;;;;5004925;28;20489;-49
2023/06/01 06:03:29;;;;;;;16.65;5.00;;;22.00;50.00;;;;;;5013068;28;20037;-49
2023/06/01 06:05:55;;;;;;;12.52;4.40;;;21.90;49.90;;;;;;5013256;28;20059;-47
2023/06/01 06:08:21;;;;;;;14.38;4.50;;;21.90;49.80;;;;;;5013291;28;20030;-50
2023/06/01 06:10:46;;;;;;;12.98;4.45;;;22.00;50.30;;;;;;5012993;28;20432;-49
2023/06/01 06:13:14;;;;;;;22.73;4.80;;;22.00;50.90;;;;;;5012362;28;20519;-51
2023/06/01 06:15:40;;;;;;;13.38;4.53;;;22.00;50.80;;;;;;5013018;28;20030;-50
2023/06/01 06:18:05;;;;;;;15.60;4.32;;;22.00;50.10;;;;;;5012989;28;20404;-47
2023/06/01 06:20:31;;;;;;;23.10;5.57;;;22.00;50.30;;;;;;5012947;28;20026;-46
2023/06/01 06:22:57;;;;;;;12.90;4.88;;;22.00;56.10;;;;;;5012768;28;20476;-47
2023/06/01 06:25:23;;;;;;;22.83;5.13;;;22.00;52.30;;;;;;5013131;28;20382;-48
2023/06/01 06:27:49;;;;;;;23.13;6.38;;;21.80;52.80;;;;;;5012920;28;20382;-49
2023/06/01 06:30:15;;;;;;;23.13;5.70;;;21.90;57.90;;;;;;5012846;28;20025;-48
2023/06/01 06:32:41;;;;;;;26.95;6.13;;;22.00;56.80;;;;;;5027197;28;20065;-48
2023/06/01 06:35:07;;;;;;;32.72;5.68;;;22.10;55.50;;;;;;5027570;28;20033;-46
2023/06/01 06:37:33;;;;;;;24.40;5.40;;;22.20;55.50;;;;;;5012172;28;20033;-48
2023/06/01 06:39:58;;;;;;;15.18;5.07;;;22.20;55.30;;;;;;5012068;28;20079;-48
2023/06/01 06:42:25;;;;;;;23.50;4.95;;;22.20;55.20;;;;;;5011732;28;20497;-47
2023/06/01 06:44:51;;;;;;;24.30;5.75;;;22.10;55.50;;;;;;5012108;28;20097;-47
2023/06/01 06:47:19;;;;;;;24.15;5.32;;;22.10;56.30;;;;;;5012431;28;20525;-51
2023/06/01 06:49:45;;;;;;;17.77;5.60;;;22.10;56.40;;;;;;5012107;28;20168;-49
2023/06/01 06:52:11;;;;;;;28.73;5.88;;;22.10;59.60;;;;;;5011555;28;20309;-55
2023/06/01 06:54:40;;;;;;;21.80;4.97;;;22.10;59.00;;;;;;5011904;28;20401;-53
2023/06/01 06:57:07;;;;;;;11.40;4.60;;;22.10;55.70;;;;;;5011404;28;20029;-50
2023/06/01 06:59:33;;;;;;;19.98;5.55;;;22.10;56.00;;;;;;5011971;28;20099;-55
2023/06/01 07:01:58;;;;;;;25.98;4.97;;;22.10;57.10;;;;;;5011870;28;20033;-55
2023/06/01 07:04:24;;;;;;;16.67;4.90;;;22.10;59.70;;;;;;5011902;28;20026;-54
2023/06/01 07:06:51;;;;;;;15.93;5.00;;;22.00;58.60;;;;;;5011889;28;20029;-55
2023/06/01 07:09:17;;;;;;;11.93;4.13;;;22.00;59.70;;;;;;5012139;28;20546;-54
2023/06/01 07:11:43;;;;;;;17.20;4.55;;;22.00;59.70;;;;;;5011739;28;20116;-55
2023/06/01 07:14:08;;;;;;;22.00;5.10;;;22.00;59.70;;;;;;5010662;28;20053;-54
2023/06/01 07:16:34;;;;;;;15.20;4.78;;;22.00;59.30;;;;;;5012948;28;20496;-53
2023/06/01 07:19:00;;;;;;;14.43;4.90;;;22.00;60.00;;;;;;5013398;28;20041;-55
2023/06/01 07:21:26;;;;;;;15.95;5.03;;;22.00;60.00;;;;;;5011875;28;20029;-53
2023/06/01 07:23:52;;;;;;;21.17;4.43;;;22.00;59.80;;;;;;5011887;28;20555;-50
2023/06/01 07:26:18;;;;;;;9.43;4.10;;;22.00;59.00;;;;;;5011067;28;20057;-55
2023/06/01 07:28:44;;;;;;;11.65;4.13;;;22.00;58.60;;;;;;5011963;28;20037;-55
2023/06/01 07:31:10;;;;;;;11.20;4.38;;;22.00;57.90;;;;;;5011910;28;20036;-55
2023/06/01 07:33:37;;;;;;;12.02;4.00;;;22.00;57.80;;;;;;5011420;28;20030;-51
2023/06/01 07:36:04;;;;;;;15.27;4.43;;;22.00;57.70;;;;;;5011827;28;20053;-54
2023/06/01 07:38:31;;;;;;;15.05;4.55;;;22.00;57.60;;;;;;5026054;28;20448;-55
2023/06/01 07:40:56;;;;;;;10.18;3.88;;;22.00;57.40;;;;;;5012018;28;20048;-55
2023/06/01 07:43:22;;;;;;;15.00;4.30;;;22.00;56.90;;;;;;5011543;28;20490;-54
2023/06/01 07:45:48;;;;;;;15.55;3.85;;;22.00;57.00;;;;;;5011559;28;20429;-55
2023/06/01 07:48:14;;;;;;;9.25;3.80;;;22.00;56.70;;;;;;5011160;28;20447;-55
2023/06/01 07:50:40;;;;;;;19.83;4.55;;;22.10;56.90;;;;;;5011705;28;20049;-55
2023/06/01 07:53:06;;;;;;;10.02;4.00;;;22.00;56.80;;;;;;5011372;28;20033;-55
2023/06/01 07:55:31;;;;;;;9.43;3.60;;;22.00;56.70;;;;;;5011503;28;20026;-55
2023/06/01 07:57:57;;;;;;;12.52;4.15;;;22.10;56.30;;;;;;5011442;28;20022;-55
2023/06/01 08:00:23;;;;;;;11.40;4.07;;;22.10;56.40;;;;;;5011397;28;20477;-55
2023/06/01 08:02:50;;;;;;;11.43;3.58;;;22.10;56.00;;;;;;5011251;28;20041;-55
2023/06/01 08:05:18;;;;;;;10.00;4.10;;;22.10;56.00;;;;;;5011652;28;20026;-52
2023/06/01 08:07:45;;;;;;;9.45;3.90;;;22.00;55.90;;;;;;5011876;28;20022;-54
2023/06/01 08:10:13;;;;;;;13.18;4.28;;;22.10;55.70;;;;;;5011170;28;20022;-55
2023/06/01 08:12:40;;;;;;;10.30;4.03;;;22.10;55.70;;;;;;5011183;28;20029;-54
2023/06/01 08:15:06;;;;;;;11.32;3.85;;;22.10;55.40;;;;;;5011351;28;20038;-55
2023/06/01 08:17:32;;;;;;;9.07;3.72;;;22.10;55.40;;;;;;5011420;28;20029;-55
2023/06/01 08:19:58;;;;;;;10.52;3.45;;;22.10;55.40;;;;;;5010877;28;20084;-55
2023/06/01 08:22:24;;;;;;;9.98;3.30;;;22.10;55.40;;;;;;5011199;28;20033;-55
2023/06/01 08:24:51;;;;;;;10.45;3.55;;;22.10;55.20;;;;;;5014506;28;20117;-55
2023/06/01 08:27:22;;;;;;;10.48;3.50;;;22.10;54.90;;;;;;5015165;28;20045;-55
2023/06/01 08:29:49;;;;;;;11.48;4.05;;;22.10;54.70;;;;;;5015126;28;20091;-53
2023/06/01 08:32:16;;;;;;;9.52;3.42;;;22.10;54.90;;;;;;5014610;28;20084;-54
2023/06/01 08:34:46;;;;;;;12.45;3.80;;;22.20;54.80;;;;;;5015078;28;20030;-54
2023/06/01 08:37:16;;;;;;;10.82;3.25;;;22.10;54.70;;;;;;5013771;28;20107;-55
2023/06/01 08:39:42;;;;;;;9.68;3.63;;;22.10;54.30;;;;;;5015010;28;20032;-53
2023/06/01 08:42:12;;;;;;;9.13;3.17;;;22.20;54.50;;;;;;5014000;28;20389;-55
2023/06/01 08:44:41;;;;;;;7.28;3.25;;;22.10;54.40;;;;;;5014829;28;20544;-55
2023/06/01 08:47:08;;;;;;;6.70;3.28;;;22.20;54.40;;;;;;5014884;28;20072;-53
2023/06/01 08:49:36;;;;;;;10.88;3.65;;;22.20;54.30;;;;;;5014896;28;20022;-54
2023/06/01 08:52:06;;;;;;;7.90;3.45;;;22.10;54.30;;;;;;5014042;28;20030;-55
2023/06/01 08:54:32;;;;;;;8.27;3.67;;;22.20;54.30;;;;;;5014777;28;20040;-55
2023/06/01 08:57:07;;;;;;;10.07;3.92;;;22.20;54.20;;;;;;5014501;28;20056;-55
2023/06/01 08:59:34;;;;;;;8.02;3.47;;;22.10;54.00;;;;;;5014294;28;20033;-55
2023/06/01 09:02:00;;;;;;;9.57;3.25;;;22.10;54.00;;;;;;5014213;28;20058;-54
2023/06/01 09:04:27;;;;;;;8.82;3.30;;;22.10;53.90;;;;;;5014622;28;20061;-55
2023/06/01 09:06:53;;;;;;;8.57;3.53;;;22.10;53.80;;;;;;5014478;28;20022;-55
2023/06/01 09:09:19;;;;;;;9.48;3.35;;;22.10;53.80;;;;;;5014349;28;20030;-54
2023/06/01 09:11:45;;;;;;;9.63;3.22;;;22.10;53.80;;;;;;5014011;28;20554;-55
2023/06/01 09:14:24;;;;;;;10.55;2.85;;;22.10;53.60;;;;;;5014101;28;20068;-55
2023/06/01 09:16:51;;;;;;;6.93;2.95;;;22.10;53.60;;;;;;5014199;28;20493;-54
2023/06/01 09:19:20;;;;;;;8.68;3.47;;;22.10;53.60;;;;;;5014263;28;20493;-54
2023/06/01 09:21:59;;;;;;;9.52;3.10;;;22.10;53.50;;;;;;5013492;28;20045;-53
2023/06/01 09:24:25;;;;;;;5.67;2.90;;;22.10;53.30;;;;;;5014380;28;20033;-55
2023/06/01 09:26:59;;;;;;;7.85;3.28;;;22.10;53.50;;;;;;5014325;28;20495;-55
2023/06/01 09:29:26;;;;;;;10.07;3.50;;;22.10;53.20;;;;;;5014057;28;20022;-55
2023/06/01 09:31:52;;;;;;;10.48;3.38;;;22.10;53.40;;;;;;5013216;28;20805;-54
2023/06/01 09:34:20;;;;;;;8.07;3.58;;;22.10;53.20;;;;;;5013542;28;20034;-54
2023/06/01 09:36:51;;;;;;;8.52;2.80;;;22.10;53.20;;;;;;5014088;28;20022;-53
2023/06/01 09:39:19;;;;;;;13.40;3.13;;;22.10;53.10;;;;;;5014022;28;20085;-53
2023/06/01 09:41:53;;;;;;;8.85;3.58;;;22.10;53.20;;;;;;5013157;28;20113;-57
2023/06/01 09:44:39;;;;;;;8.30;3.08;;;22.10;53.10;;;;;;5012771;28;20036;-55
2023/06/01 09:47:09;;;;;;;8.73;3.35;;;22.10;53.20;;;;;;4994705;28;20121;-55
2023/06/01 09:49:38;;;;;;;8.10;3.30;;;22.10;52.90;;;;;;4994363;28;20478;-53
2023/06/01 09:52:04;;;;;;;6.38;3.40;;;22.10;53.00;;;;;;4997804;28;20033;-52
2023/06/01 09:54:36;;;;;;;8.27;3.42;;;22.10;53.20;;;;;;5013331;28;20037;-54
2023/06/01 09:57:04;;;;;;;8.90;3.30;;;22.10;53.00;;;;;;5028603;28;20096;-55
2023/06/01 09:59:37;;;;;;;7.28;3.20;;;22.10;53.00;;;;;;5013474;28;20549;-55
2023/06/01 10:02:04;;;;;;;8.93;3.20;;;22.10;53.00;;;;;;5013313;28;20452;-55
2023/06/01 10:04:30;;;;;;;11.35;3.40;;;22.10;52.80;;;;;;5012207;28;20133;-53
2023/06/01 10:06:57;;;;;;;13.05;3.40;;;22.10;53.50;;;;;;5012904;28;20026;-50
2023/06/01 10:09:26;;;;;;;9.20;3.35;;;22.10;53.60;;;;;;5012590;28;20029;-54
2023/06/01 10:11:54;;;;;;;7.40;2.90;;;22.10;53.40;;;;;;5013540;28;20041;-54
2023/06/01 10:14:24;;;;;;;7.60;3.00;;;22.10;53.10;;;;;;5012732;28;20030;-55
2023/06/01 10:16:52;;;;;;;8.65;3.65;;;22.10;53.10;;;;;;5013256;28;20441;-53
2023/06/01 10:19:21;;;;;;;7.63;3.80;;;22.10;53.00;;;;;;5013159;28;20101;-54
2023/06/01 10:21:47;;;;;;;7.97;3.30;;;22.10;52.90;;;;;;5028064;28;20549;-54
2023/06/01 10:24:16;;;;;;;6.80;3.47;;;22.10;52.80;;;;;;5012477;28;20512;-55
2023/06/01 10:26:50;;;;;;;8.80;3.57;;;22.10;53.00;;;;;;5012689;28;20036;-55
2023/06/01 10:29:18;;;;;;;7.90;3.63;;;22.10;52.90;;;;;;5013031;28;20029;-53
2023/06/01 10:31:44;;;;;;;7.95;3.42;;;22.10;52.80;;;;;;5012971;28;20030;-51
2023/06/01 10:34:11;;;;;;;6.55;3.35;;;22.10;52.90;;;;;;5012608;28;20079;-49
2023/06/01 10:36:52;;;;;;;5.47;2.97;;;22.10;52.90;;;;;;5012643;28;20034;-51
2023/06/01 10:39:28;;;;;;;6.35;3.42;;;22.10;52.90;;;;;;5012793;28;20037;-55
2023/06/01 10:41:56;;;;;;;7.40;3.50;;;22.10;52.80;;;;;;5012306;28;20527;-55
2023/06/01 10:44:40;;;;;;;7.60;3.28;;;22.10;52.80;;;;;;5012629;28;20026;-55
2023/06/01 10:47:12;;;;;;;7.57;3.50;;;22.10;52.90;;;;;;5011238;28;20104;-55
2023/06/01 10:49:47;;;;;;;7.93;3.40;;;22.10;52.90;;;;;;5012513;28;20080;-55
2023/06/01 10:52:35;;;;;;;6.55;3.25;;;22.10;52.90;;;;;;5012195;28;20041;-52
2023/06/01 10:55:10;;;;;;;8.55;3.88;;;22.10;52.80;;;;;;5012468;28;20053;-55
2023/06/01 10:57:37;;;;;;;7.22;3.45;;;22.10;52.90;;;;;;5042061;23;20549;-55
2023/06/01 11:00:27;;;;;;;7.95;3.90;;;22.10;52.90;;;;;;5030797;28;20021;-55
2023/06/01 11:03:02;;;;;;;8.32;3.50;;;22.10;52.90;;;;;;5031734;28;20033;-52
2023/06/01 11:05:36;;;;;;;9.73;3.75;;;22.10;52.80;;;;;;5031945;28;20026;-56
2023/06/01 11:08:06;;;;;;;6.40;3.47;;;22.10;52.90;;;;;;5017840;28;20034;-54
2023/06/01 11:10:50;;;;;;;;;;;22.10;52.90;;;;;;5012535;28;20076;-55
2023/06/01 11:13:19;;;;;;;6.75;3.80;;;22.10;52.80;;;;;;5010722;28;19913;-56
2023/06/01 11:16:03;;;;;;;6.80;3.50;;;22.10;52.80;;;;;;5012049;28;20032;-56
2023/06/01 11:18:49;;;;;;;6.38;3.28;;;22.10;52.80;;;;;;5012936;28;20378;-56
2023/06/01 11:21:18;;;;;;;8.38;3.53;;;22.10;52.90;;;;;;5011982;28;20030;-56
2023/06/01 11:23:45;;;;;;;7.18;3.92;;;22.10;52.80;;;;;;5011773;28;20022;-55
2023/06/01 11:26:15;;;;;;;8.43;3.80;;;22.10;52.90;;;;;;5011861;28;20497;-55
2023/06/01 11:28:42;;;;;;;7.00;3.67;;;22.10;52.90;;;;;;5013168;28;20029;-56
2023/06/01 11:31:12;;;;;;;7.95;3.78;;;22.00;52.80;;;;;;5012420;28;20032;-55
2023/06/01 11:33:42;;;;;;;6.47;3.28;;;22.10;52.70;;;;;;5011656;28;20392;-55
2023/06/01 11:36:10;;;;;;;7.82;3.70;;;22.00;52.80;;;;;;5011829;28;20022;-57
2023/06/01 11:38:39;;;;;;;6.82;3.80;;;22.10;52.80;;;;;;5012846;28;20026;-53
2023/06/01 11:41:06;;;;;;;6.03;3.70;;;22.10;52.80;;;;;;5011558;28;20040;-53
2023/06/01 11:43:33;;;;;;;7.05;3.55;;;22.10;52.80;;;;;;5028062;28;20104;-56
2023/06/01 11:46:03;;;;;;;7.25;3.67;;;22.00;52.70;;;;;;5031393;28;20056;-56
2023/06/01 11:48:30;;;;;;;8.48;4.03;;;22.00;52.80;;;;;;5031533;28;20029;-55
2023/06/01 11:50:56;;;;;;;8.13;3.83;;;22.10;52.80;;;;;;5031873;28;20310;-58
2023/06/01 11:53:23;;;;;;;7.53;3.85;;;22.10;52.90;;;;;;5029139;28;20030;-57
2023/06/01 11:55:54;;;;;;;6.03;3.58;;;22.10;52.80;;;;;;5031117;28;20029;-55
2023/06/01 11:58:29;;;;;;;7.78;3.58;;;22.10;52.70;;;;;;5033738;28;20029;-53
2023/06/01 12:00:56;;;;;;;6.78;3.58;;;22.00;52.60;;;;;;5035106;28;20026;-53
2023/06/01 12:03:24;;;;;;;8.52;3.88;;;22.10;52.70;;;;;;5033154;28;20033;-53
2023/06/01 12:05:50;;;;;;;7.97;3.60;;;22.10;52.70;;;;;;5035356;28;20428;-56
2023/06/01 12:08:21;;;;;;;6.10;3.72;;;22.10;52.70;;;;;;5035372;28;20025;-57
2023/06/01 12:10:48;;;;;;;8.27;3.90;;;22.10;52.60;;;;;;5035390;28;20074;-58
2023/06/01 12:13:15;;;;;;;5.85;3.53;;;22.10;52.60;;;;;;5034577;28;20030;-58
2023/06/01 12:15:41;;;;;;;7.70;3.70;;;22.10;52.60;;;;;;5033400;28;20061;-58
2023/06/01 12:18:08;;;;;;;6.82;3.65;;;22.10;52.60;;;;;;5035151;28;20066;-56
2023/06/01 12:20:41;;;;;;;5.88;3.50;;;22.10;52.60;;;;;;5035155;28;20037;-58
2023/06/01 12:23:15;;;;;;;7.00;3.72;;;22.10;52.70;;;;;;5034746;28;20030;-58
2023/06/01 12:25:50;;;;;;;5.88;3.50;;;22.10;52.70;;;;;;5034896;28;20108;-58
2023/06/01 12:28:19;;;;;;;7.18;3.92;;;22.10;52.60;;;;;;5035131;28;20292;-57
2023/06/01 12:30:48;;;;;;;7.47;4.13;;;22.10;52.60;;;;;;5033223;28;20045;-58
2023/06/01 12:33:35;;;;;;;10.75;4.07;;;22.10;52.60;;;;;;5034737;28;20104;-57
2023/06/01 12:36:03;;;;;;;7.72;3.63;;;22.10;52.70;;;;;;5034852;28;20036;-56
2023/06/01 12:38:49;;;;;;;6.43;3.88;;;22.10;52.70;;;;;;5034813;28;20047;-58
2023/06/01 12:41:15;;;;;;;7.45;3.85;;;22.00;52.70;;;;;;5034699;28;20424;-58
2023/06/01 12:43:48;;;;;;;12.20;3.78;;;22.10;52.70;;;;;;5034394;28;20037;-57
2023/06/01 12:46:35;;;;;;;7.43;3.85;;;22.00;52.60;;;;;;5034597;28;20395;-58
2023/06/01 12:49:17;;;;;;;6.50;3.70;;;22.10;52.70;;;;;;5034683;28;20071;-57
2023/06/01 12:51:44;;;;;;;6.75;3.53;;;22.00;52.60;;;;;;5033137;28;20033;-56
2023/06/01 12:54:09;;;;;;;8.60;3.55;;;22.10;52.60;;;;;;5023803;28;20029;-58